PWSweather.com
Personal Weather Stations
Station Observations
SHAHALMS1
Eftra, Falkenberg, HA

EftraFalkenberg, HA

Lat: 56.85, Lon: 12.65

Elevation: 140

Station Type:

http://hem.passagen.se/risarp101

High Low Average
Temperature 57.4°F14.1°C 45.9°F7.7°C 49.5°F9.7°C
Dew Point 52.2°F11.2°C 41.1°F5.1°C 45.1°F7.3°C
Winds 10.7 mph 17.2 kmh 3.5 mph 5.6 kmh 7.0 mph S11.3 kmh S
Wind Gusts 32.9 mph52.9 kmh 7.5 mph12.1 kmh 16.0 mph25.7 kmh
Humidity 92% 70% 85%
Pressure 29.65 in1004.1 mb 29.47 in998.0 mb -
Precipitation 0.33 in8.4 mm - -
Hour Temp Dew Point Humidity Winds Wind Gusts Pressure Precip Precip Rate Daily Precip Total
12:00 AM 50.4°F10.2°C 47.5°F8.6°C 90% 5.6 mph S9.0 kmh S 12.9 mph20.8 kmh 29.50 in999.0 mb 0.00 in0.0 mm 0.00 in0.0 mm 0.00 in0.0 mm
12:15 AM 50.2°F10.1°C 47.1°F8.4°C 89% 6.4 mph S10.3 kmh S 12.5 mph20.1 kmh 29.50 in999.0 mb 0.00 in0.0 mm 0.00 in0.0 mm 0.00 in0.0 mm
12:30 AM 50.0°F10.0°C 46.9°F8.3°C 89% 6.1 mph S9.8 kmh S 12.5 mph20.1 kmh 29.50 in999.0 mb 0.00 in0.0 mm 0.00 in0.0 mm 0.00 in0.0 mm
12:45 AM 50.0°F10.0°C 46.9°F8.3°C 89% 4.8 mph SE7.7 kmh SE 9.3 mph15.0 kmh 29.47 in998.0 mb 0.00 in0.0 mm 0.00 in0.0 mm 0.00 in0.0 mm
01:00 AM 49.8°F9.9°C 46.7°F8.2°C 89% 6.1 mph SSE9.8 kmh SSE 11.8 mph19.0 kmh 29.50 in999.0 mb 0.00 in0.0 mm 0.00 in0.0 mm 0.00 in0.0 mm
01:15 AM 49.6°F9.8°C 46.5°F8.1°C 89% 6.4 mph SSE10.3 kmh SSE 12.5 mph20.1 kmh 29.47 in998.0 mb 0.00 in0.0 mm 0.00 in0.0 mm 0.00 in0.0 mm
01:30 AM 49.3°F9.6°C 46.2°F7.9°C 89% 7.2 mph SSE11.6 kmh SSE 14.0 mph22.5 kmh 29.50 in999.0 mb 0.00 in0.0 mm 0.00 in0.0 mm 0.00 in0.0 mm
01:45 AM 49.1°F9.5°C 46.0°F7.8°C 89% 7.7 mph SSE12.4 kmh SSE 15.7 mph25.3 kmh 29.47 in998.0 mb 0.00 in0.0 mm 0.00 in0.0 mm 0.00 in0.0 mm
02:00 AM 49.5°F9.7°C 46.6°F8.1°C 90% 7.7 mph S12.4 kmh S 14.0 mph22.5 kmh 29.50 in999.0 mb 0.00 in0.0 mm 0.00 in0.0 mm 0.00 in0.0 mm
02:15 AM 49.5°F9.7°C 46.6°F8.1°C 90% 8.8 mph S14.2 kmh S 19.3 mph31.1 kmh 29.50 in999.0 mb 0.00 in0.0 mm 0.00 in0.0 mm 0.00 in0.0 mm
02:30 AM 49.1°F9.5°C 46.3°F7.9°C 90% 7.9 mph SSE12.7 kmh SSE 14.0 mph22.5 kmh 29.50 in999.0 mb 0.00 in0.0 mm 0.00 in0.0 mm 0.00 in0.0 mm
02:45 AM 49.1°F9.5°C 46.3°F7.9°C 90% 6.1 mph SSE9.8 kmh SSE 12.9 mph20.8 kmh 29.50 in999.0 mb 0.00 in0.0 mm 0.00 in0.0 mm 0.00 in0.0 mm
03:00 AM 48.9°F9.4°C 46.1°F7.8°C 90% 8.5 mph SE13.7 kmh SE 12.9 mph20.8 kmh 29.50 in999.0 mb 0.00 in0.0 mm 0.00 in0.0 mm 0.00 in0.0 mm
03:15 AM 48.6°F9.2°C 45.8°F7.7°C 90% 8.2 mph SE13.2 kmh SE 13.6 mph21.9 kmh 29.50 in999.0 mb 0.00 in0.0 mm 0.00 in0.0 mm 0.00 in0.0 mm
03:30 AM 48.4°F9.1°C 45.6°F7.6°C 90% 8.6 mph ESE13.8 kmh ESE 15.7 mph25.3 kmh 29.50 in999.0 mb 0.00 in0.0 mm 0.00 in0.0 mm 0.00 in0.0 mm
03:45 AM 48.6°F9.2°C 45.8°F7.7°C 90% 9.7 mph E15.6 kmh E 15.7 mph25.3 kmh 29.50 in999.0 mb 0.00 in0.0 mm 0.00 in0.0 mm 0.00 in0.0 mm
04:00 AM 48.6°F9.2°C 45.8°F7.7°C 90% 10.5 mph ESE16.9 kmh ESE 16.8 mph27.0 kmh 29.50 in999.0 mb 0.00 in0.0 mm 0.00 in0.0 mm 0.00 in0.0 mm
04:15 AM 48.4°F9.1°C 45.6°F7.6°C 90% 9.9 mph E15.9 kmh E 16.1 mph25.9 kmh 29.50 in999.0 mb 0.00 in0.0 mm 0.00 in0.0 mm 0.00 in0.0 mm
04:30 AM 48.2°F9.0°C 45.4°F7.4°C 90% 10.2 mph ESE16.4 kmh ESE 16.5 mph26.6 kmh 29.50 in999.0 mb 0.00 in0.0 mm 0.00 in0.0 mm 0.00 in0.0 mm
04:45 AM 48.2°F9.0°C 45.4°F7.4°C 90% 10.7 mph E17.2 kmh E 16.8 mph27.0 kmh 29.50 in999.0 mb 0.00 in0.0 mm 0.00 in0.0 mm 0.00 in0.0 mm
05:00 AM 48.4°F9.1°C 45.6°F7.6°C 90% 9.5 mph E15.3 kmh E 16.1 mph25.9 kmh 29.50 in999.0 mb 0.00 in0.0 mm 0.00 in0.0 mm 0.00 in0.0 mm
05:15 AM 48.9°F9.4°C 46.4°F8.0°C 91% 9.1 mph E14.6 kmh E 15.7 mph25.3 kmh 29.50 in999.0 mb 0.00 in0.0 mm 0.00 in0.0 mm 0.00 in0.0 mm
05:30 AM 48.9°F9.4°C 46.4°F8.0°C 91% 8.4 mph E13.5 kmh E 15.7 mph25.3 kmh 29.53 in1000.0 mb 0.00 in0.0 mm 0.00 in0.0 mm 0.00 in0.0 mm
05:45 AM 49.1°F9.5°C 46.6°F8.1°C 91% 5.2 mph E8.4 kmh E 11.8 mph19.0 kmh 29.50 in999.0 mb 0.00 in0.0 mm 0.00 in0.0 mm 0.00 in0.0 mm
06:15 AM 50.0°F10.0°C 47.5°F8.6°C 91% 6.0 mph E9.7 kmh E 12.5 mph20.1 kmh 29.50 in999.0 mb 0.00 in0.0 mm 0.00 in0.0 mm 0.00 in0.0 mm
06:30 AM 51.3°F10.7°C 48.7°F9.3°C 91% 7.5 mph E12.1 kmh E 14.0 mph22.5 kmh 29.50 in999.0 mb 0.00 in0.0 mm 0.00 in0.0 mm 0.00 in0.0 mm
06:45 AM 52.2°F11.2°C 49.9°F9.9°C 92% 8.9 mph E14.3 kmh E 16.1 mph25.9 kmh 29.50 in999.0 mb 0.00 in0.0 mm 0.00 in0.0 mm 0.00 in0.0 mm
07:00 AM 52.5°F11.4°C 50.0°F10.0°C 91% 8.9 mph E14.3 kmh E 19.7 mph31.7 kmh 29.47 in998.0 mb 0.00 in0.0 mm 0.00 in0.0 mm 0.00 in0.0 mm
07:15 AM 52.9°F11.6°C 50.0°F10.0°C 90% 7.0 mph ESE11.3 kmh ESE 13.6 mph21.9 kmh 29.47 in998.0 mb 0.00 in0.0 mm 0.00 in0.0 mm 0.00 in0.0 mm
07:30 AM 53.6°F12.0°C 50.7°F10.4°C 90% 7.8 mph E12.6 kmh E 15.0 mph24.1 kmh 29.50 in999.0 mb 0.00 in0.0 mm 0.00 in0.0 mm 0.00 in0.0 mm
07:45 AM 55.4°F13.0°C 52.2°F11.2°C 89% 9.9 mph E15.9 kmh E 21.1 mph34.0 kmh 29.50 in999.0 mb 0.00 in0.0 mm 0.00 in0.0 mm 0.00 in0.0 mm
08:00 AM 55.9°F13.3°C 52.1°F11.2°C 87% 8.6 mph ESE13.8 kmh ESE 17.5 mph28.2 kmh 29.47 in998.0 mb 0.00 in0.0 mm 0.00 in0.0 mm 0.00 in0.0 mm
08:15 AM 56.3°F13.5°C 51.5°F10.8°C 84% 10.3 mph ESE16.6 kmh ESE 22.5 mph36.2 kmh 29.50 in999.0 mb 0.00 in0.0 mm 0.00 in0.0 mm 0.00 in0.0 mm
08:30 AM 57.4°F14.1°C 51.6°F10.9°C 81% 8.7 mph SE14.0 kmh SE 24.7 mph39.8 kmh 29.50 in999.0 mb 0.00 in0.0 mm 0.00 in0.0 mm 0.00 in0.0 mm
08:45 AM 57.2°F14.0°C 50.7°F10.4°C 79% 10.6 mph SE17.1 kmh SE 27.2 mph43.8 kmh 29.47 in998.0 mb 0.00 in0.0 mm 0.00 in0.0 mm 0.00 in0.0 mm
09:00 AM 56.3°F13.5°C 48.5°F9.2°C 75% 10.2 mph SSE16.4 kmh SSE 32.9 mph52.9 kmh 29.47 in998.0 mb 0.00 in0.0 mm 0.00 in0.0 mm 0.00 in0.0 mm
09:15 AM 55.6°F13.1°C 45.9°F7.7°C 70% 9.2 mph S14.8 kmh S 22.5 mph36.2 kmh 29.50 in999.0 mb 0.00 in0.0 mm 0.00 in0.0 mm 0.00 in0.0 mm
09:30 AM 54.5°F12.5°C 45.3°F7.4°C 71% 8.6 mph S13.8 kmh S 22.2 mph35.7 kmh 29.50 in999.0 mb 0.00 in0.0 mm 0.00 in0.0 mm 0.00 in0.0 mm
09:45 AM 53.8°F12.1°C 44.6°F7.0°C 71% 8.5 mph S13.7 kmh S 17.2 mph27.7 kmh 29.50 in999.0 mb 0.00 in0.0 mm 0.00 in0.0 mm 0.00 in0.0 mm
10:00 AM 53.8°F12.1°C 45.0°F7.2°C 72% 5.6 mph S9.0 kmh S 15.4 mph24.8 kmh 29.50 in999.0 mb 0.00 in0.0 mm 0.00 in0.0 mm 0.00 in0.0 mm
10:15 AM 54.0°F12.2°C 45.1°F7.3°C 72% 5.5 mph SSW8.9 kmh SSW 12.9 mph20.8 kmh 29.50 in999.0 mb 0.00 in0.0 mm 0.00 in0.0 mm 0.00 in0.0 mm
10:30 AM 53.6°F12.0°C 44.4°F6.9°C 71% 7.4 mph S11.9 kmh S 16.8 mph27.0 kmh 29.50 in999.0 mb 0.00 in0.0 mm 0.00 in0.0 mm 0.00 in0.0 mm
10:45 AM 53.1°F11.7°C 44.3°F6.8°C 72% 5.5 mph S8.9 kmh S 11.8 mph19.0 kmh 29.50 in999.0 mb 0.00 in0.0 mm 0.00 in0.0 mm 0.00 in0.0 mm
11:00 AM 52.5°F11.4°C 44.1°F6.7°C 73% 6.6 mph S10.6 kmh S 12.9 mph20.8 kmh 29.50 in999.0 mb 0.00 in0.0 mm 0.00 in0.0 mm 0.00 in0.0 mm
11:15 AM 51.8°F11.0°C 44.1°F6.7°C 75% 7.8 mph SW12.6 kmh SW 22.9 mph36.9 kmh 29.50 in999.0 mb 0.00 in0.0 mm 0.00 in0.0 mm 0.00 in0.0 mm
11:30 AM 50.9°F10.5°C 44.6°F7.0°C 79% 5.8 mph W9.3 kmh W 10.4 mph16.7 kmh 29.50 in999.0 mb 0.00 in0.0 mm 0.00 in0.0 mm 0.00 in0.0 mm
11:45 AM 49.6°F9.8°C 43.4°F6.3°C 79% 6.1 mph WSW9.8 kmh WSW 13.6 mph21.9 kmh 29.50 in999.0 mb 0.00 in0.0 mm 0.00 in0.0 mm 0.00 in0.0 mm
12:00 PM 50.0°F10.0°C 44.4°F6.9°C 81% 4.1 mph SSW6.6 kmh SSW 9.3 mph15.0 kmh 29.50 in999.0 mb 0.05 in1.3 mm 0.07 in1.8 mm 0.05 in1.3 mm
12:15 PM 51.1°F10.6°C 46.1°F7.8°C 83% 3.5 mph S5.6 kmh S 7.5 mph12.1 kmh 29.53 in1000.0 mb 0.05 in1.3 mm 0.00 in0.0 mm 0.05 in1.3 mm
12:30 PM 51.6°F10.9°C 46.6°F8.1°C 83% 4.4 mph WSW7.1 kmh WSW 8.9 mph14.3 kmh 29.50 in999.0 mb 0.05 in1.3 mm 0.00 in0.0 mm 0.05 in1.3 mm
12:45 PM 50.2°F10.1°C 44.9°F7.2°C 82% 6.1 mph W9.8 kmh W 11.5 mph18.5 kmh 29.53 in1000.0 mb 0.05 in1.3 mm 0.00 in0.0 mm 0.05 in1.3 mm
01:00 PM 49.1°F9.5°C 43.8°F6.6°C 82% 6.1 mph WSW9.8 kmh WSW 12.5 mph20.1 kmh 29.53 in1000.0 mb 0.00 in0.0 mm 0.00 in0.0 mm 0.05 in1.3 mm
01:15 PM 50.0°F10.0°C 45.0°F7.2°C 83% 5.6 mph SW9.0 kmh SW 12.2 mph19.6 kmh 29.56 in1001.0 mb 0.00 in0.0 mm 0.00 in0.0 mm 0.05 in1.3 mm
01:30 PM 51.4°F10.8°C 45.5°F7.5°C 80% 6.0 mph S9.7 kmh S 15.7 mph25.3 kmh 29.53 in1000.0 mb 0.00 in0.0 mm 0.00 in0.0 mm 0.05 in1.3 mm
01:45 PM 50.7°F10.4°C 44.8°F7.1°C 80% 7.6 mph S12.2 kmh S 16.1 mph25.9 kmh 29.56 in1001.0 mb 0.00 in0.0 mm 0.00 in0.0 mm 0.05 in1.3 mm
02:00 PM 51.8°F11.0°C 46.2°F7.9°C 81% 7.4 mph S11.9 kmh S 20.8 mph33.5 kmh 29.56 in1001.0 mb 0.00 in0.0 mm 0.00 in0.0 mm 0.05 in1.3 mm
02:15 PM 51.8°F11.0°C 45.5°F7.5°C 79% 6.7 mph S10.8 kmh S 15.7 mph25.3 kmh 29.53 in1000.0 mb 0.00 in0.0 mm 0.00 in0.0 mm 0.05 in1.3 mm
02:30 PM 50.9°F10.5°C 43.9°F6.6°C 77% 8.1 mph S13.0 kmh S 16.1 mph25.9 kmh 29.53 in1000.0 mb 0.00 in0.0 mm 0.00 in0.0 mm 0.05 in1.3 mm
02:45 PM 50.2°F10.1°C 43.2°F6.2°C 77% 8.7 mph S14.0 kmh S 22.2 mph35.7 kmh 29.53 in1000.0 mb 0.00 in0.0 mm 0.00 in0.0 mm 0.05 in1.3 mm
03:00 PM 48.7°F9.3°C 42.5°F5.8°C 79% 5.3 mph S8.5 kmh S 11.5 mph18.5 kmh 29.53 in1000.0 mb 0.05 in1.3 mm 0.07 in1.8 mm 0.09 in2.3 mm
03:15 PM 47.3°F8.5°C 41.1°F5.1°C 79% 5.8 mph S9.3 kmh S 16.1 mph25.9 kmh 29.53 in1000.0 mb 0.09 in2.3 mm 0.16 in4.1 mm 0.14 in3.6 mm
03:30 PM 46.9°F8.3°C 41.1°F5.1°C 80% 3.8 mph S6.1 kmh S 10.4 mph16.7 kmh 29.53 in1000.0 mb 0.15 in3.8 mm 0.24 in6.1 mm 0.20 in5.1 mm
03:45 PM 47.1°F8.4°C 42.2°F5.7°C 83% 7.6 mph S12.2 kmh S 17.5 mph28.2 kmh 29.50 in999.0 mb 0.15 in3.8 mm 0.00 in0.0 mm 0.20 in5.1 mm
04:00 PM 47.3°F8.5°C 42.7°F5.9°C 84% 5.7 mph S9.2 kmh S 14.3 mph23.0 kmh 29.50 in999.0 mb 0.10 in2.5 mm 0.00 in0.0 mm 0.20 in5.1 mm
04:15 PM 47.1°F8.4°C 42.5°F5.8°C 84% 7.8 mph SSE12.6 kmh SSE 16.5 mph26.6 kmh 29.50 in999.0 mb 0.10 in2.5 mm 0.00 in0.0 mm 0.24 in6.1 mm
04:30 PM 47.3°F8.5°C 42.7°F5.9°C 84% 4.6 mph SSE7.4 kmh SSE 16.1 mph25.9 kmh 29.50 in999.0 mb 0.05 in1.3 mm 0.00 in0.0 mm 0.24 in6.1 mm
04:45 PM 47.3°F8.5°C 42.7°F5.9°C 84% 4.6 mph S7.4 kmh S 11.1 mph17.9 kmh 29.50 in999.0 mb 0.05 in1.3 mm 0.00 in0.0 mm 0.24 in6.1 mm
05:00 PM 46.9°F8.3°C 42.7°F5.9°C 85% 7.4 mph SSE11.9 kmh SSE 17.9 mph28.8 kmh 29.47 in998.0 mb 0.05 in1.3 mm 0.00 in0.0 mm 0.24 in6.1 mm
05:15 PM 46.8°F8.2°C 42.5°F5.8°C 85% 5.6 mph S9.0 kmh S 16.8 mph27.0 kmh 29.47 in998.0 mb 0.05 in1.3 mm 0.00 in0.0 mm 0.29 in7.4 mm
05:30 PM 46.8°F8.2°C 42.8°F6.0°C 86% 8.5 mph S13.7 kmh S 20.0 mph32.2 kmh 29.50 in999.0 mb 0.05 in1.3 mm 0.00 in0.0 mm 0.29 in7.4 mm
05:45 PM 46.6°F8.1°C 42.6°F5.9°C 86% 5.6 mph S9.0 kmh S 13.6 mph21.9 kmh 29.47 in998.0 mb 0.05 in1.3 mm 0.00 in0.0 mm 0.29 in7.4 mm
06:00 PM 46.4°F8.0°C 42.7°F5.9°C 87% 6.1 mph S9.8 kmh S 21.8 mph35.1 kmh 29.50 in999.0 mb 0.05 in1.3 mm 0.00 in0.0 mm 0.29 in7.4 mm
06:15 PM 46.4°F8.0°C 42.7°F5.9°C 87% 6.6 mph S10.6 kmh S 15.7 mph25.3 kmh 29.50 in999.0 mb 0.05 in1.3 mm 0.00 in0.0 mm 0.33 in8.4 mm
06:30 PM 46.2°F7.9°C 42.9°F6.1°C 88% 7.3 mph S11.7 kmh S 17.5 mph28.2 kmh 29.50 in999.0 mb 0.05 in1.3 mm 0.00 in0.0 mm 0.33 in8.4 mm
06:45 PM 46.2°F7.9°C 43.2°F6.2°C 89% 9.1 mph SW14.6 kmh SW 16.5 mph26.6 kmh 29.50 in999.0 mb 0.05 in1.3 mm 0.00 in0.0 mm 0.33 in8.4 mm
07:00 PM 46.0°F7.8°C 43.0°F6.1°C 89% 8.0 mph W12.9 kmh W 15.7 mph25.3 kmh 29.50 in999.0 mb 0.05 in1.3 mm 0.00 in0.0 mm 0.33 in8.4 mm
07:15 PM 45.9°F7.7°C 42.8°F6.0°C 89% 9.2 mph WSW14.8 kmh WSW 20.0 mph32.2 kmh 29.53 in1000.0 mb 0.00 in0.0 mm 0.00 in0.0 mm 0.33 in8.4 mm
07:30 PM 46.0°F7.8°C 43.0°F6.1°C 89% 8.1 mph W13.0 kmh W 17.5 mph28.2 kmh 29.53 in1000.0 mb 0.00 in0.0 mm 0.00 in0.0 mm 0.33 in8.4 mm
07:45 PM 46.0°F7.8°C 43.0°F6.1°C 89% 8.4 mph W13.5 kmh W 19.3 mph31.1 kmh 29.56 in1001.0 mb 0.00 in0.0 mm 0.00 in0.0 mm 0.33 in8.4 mm
08:00 PM 46.2°F7.9°C 43.2°F6.2°C 89% 8.1 mph W13.0 kmh W 16.5 mph26.6 kmh 29.56 in1001.0 mb 0.00 in0.0 mm 0.00 in0.0 mm 0.33 in8.4 mm
08:15 PM 46.4°F8.0°C 43.6°F6.4°C 90% 9.2 mph W14.8 kmh W 17.5 mph28.2 kmh 29.56 in1001.0 mb 0.00 in0.0 mm 0.00 in0.0 mm 0.33 in8.4 mm
08:30 PM 46.6°F8.1°C 43.8°F6.6°C 90% 8.5 mph WSW13.7 kmh WSW 14.0 mph22.5 kmh 29.56 in1001.0 mb 0.00 in0.0 mm 0.00 in0.0 mm 0.33 in8.4 mm
08:45 PM 46.4°F8.0°C 43.6°F6.4°C 90% 8.1 mph W13.0 kmh W 14.7 mph23.7 kmh 29.56 in1001.0 mb 0.00 in0.0 mm 0.00 in0.0 mm 0.33 in8.4 mm
09:00 PM 46.4°F8.0°C 43.3°F6.3°C 89% 6.8 mph W10.9 kmh W 17.2 mph27.7 kmh 29.59 in1002.0 mb 0.00 in0.0 mm 0.00 in0.0 mm 0.33 in8.4 mm
09:15 PM 46.6°F8.1°C 43.5°F6.4°C 89% 7.0 mph W11.3 kmh W 14.0 mph22.5 kmh 29.59 in1002.0 mb 0.00 in0.0 mm 0.00 in0.0 mm 0.33 in8.4 mm
09:30 PM 46.6°F8.1°C 43.5°F6.4°C 89% 8.1 mph W13.0 kmh W 15.7 mph25.3 kmh 29.59 in1002.0 mb 0.00 in0.0 mm 0.00 in0.0 mm 0.33 in8.4 mm
09:45 PM 46.8°F8.2°C 43.7°F6.5°C 89% 6.5 mph W10.5 kmh W 12.9 mph20.8 kmh 29.59 in1002.0 mb 0.00 in0.0 mm 0.00 in0.0 mm 0.33 in8.4 mm
10:00 PM 46.8°F8.2°C 43.7°F6.5°C 89% 7.5 mph W12.1 kmh W 15.7 mph25.3 kmh 29.59 in1002.0 mb 0.00 in0.0 mm 0.00 in0.0 mm 0.33 in8.4 mm
10:15 PM 46.9°F8.3°C 43.9°F6.6°C 89% 7.6 mph W12.2 kmh W 15.7 mph25.3 kmh 29.59 in1002.0 mb 0.00 in0.0 mm 0.00 in0.0 mm 0.33 in8.4 mm
10:30 PM 46.9°F8.3°C 43.9°F6.6°C 89% 7.5 mph W12.1 kmh W 17.2 mph27.7 kmh 29.62 in1003.0 mb 0.00 in0.0 mm 0.00 in0.0 mm 0.33 in8.4 mm
10:45 PM 46.9°F8.3°C 43.9°F6.6°C 89% 7.9 mph W12.7 kmh W 17.2 mph27.7 kmh 29.62 in1003.0 mb 0.00 in0.0 mm 0.00 in0.0 mm 0.33 in8.4 mm
11:00 PM 47.1°F8.4°C 44.0°F6.7°C 89% 6.9 mph W11.1 kmh W 12.9 mph20.8 kmh 29.59 in1002.0 mb 0.00 in0.0 mm 0.00 in0.0 mm 0.20 in5.1 mm
11:15 PM 47.1°F8.4°C 44.0°F6.7°C 89% 6.7 mph W10.8 kmh W 12.9 mph20.8 kmh 29.62 in1003.0 mb 0.00 in0.0 mm 0.00 in0.0 mm 0.20 in5.1 mm
11:30 PM 47.1°F8.4°C 43.7°F6.5°C 88% 7.3 mph W11.7 kmh W 13.6 mph21.9 kmh 29.65 in1004.1 mb 0.00 in0.0 mm 0.00 in0.0 mm 0.20 in5.1 mm
11:45 PM 47.1°F8.4°C 43.7°F6.5°C 88% 5.7 mph W9.2 kmh W 10.4 mph16.7 kmh 29.65 in1004.1 mb 0.00 in0.0 mm 0.00 in0.0 mm 0.20 in5.1 mm